createdAt,value
2019-04-22T00:01:13.655Z,25.60
2019-04-22T00:03:50.890Z,25.15
2019-04-22T00:06:39.046Z,25.57
2019-04-22T00:09:15.470Z,24.40
2019-04-22T00:11:45.691Z,24.37
2019-04-22T00:14:06.787Z,23.27
2019-04-22T00:16:56.663Z,25.65
2019-04-22T00:21:47.698Z,23.57
2019-04-22T00:24:18.743Z,24.33
2019-04-22T00:26:54.757Z,24.07
2019-04-22T00:29:57.836Z,24.93
2019-04-22T00:32:03.443Z,22.43
2019-04-22T00:34:35.921Z,22.80
2019-04-22T00:37:15.322Z,23.20
2019-04-22T00:42:15.330Z,23.03
2019-04-22T00:44:58.486Z,23.62
2019-04-22T00:47:23.197Z,24.72
2019-04-22T00:52:24.463Z,25.43
2019-04-22T00:55:00.506Z,26.60
2019-04-22T00:57:21.526Z,25.33
2019-04-22T01:00:03.402Z,25.17
2019-04-22T01:02:30.986Z,26.50
2019-04-22T01:05:01.303Z,25.40
2019-04-22T01:07:25.399Z,26.97
2019-04-22T01:09:58.563Z,26.40
2019-04-22T01:12:31.661Z,26.30
2019-04-22T01:15:00.871Z,26.23
2019-04-22T01:17:34.430Z,26.70
2019-04-22T01:20:13.927Z,28.40
2019-04-22T01:22:33.057Z,27.25
2019-04-22T01:25:02.432Z,27.03
2019-04-22T01:27:32.376Z,27.60
2019-04-22T01:29:59.986Z,28.20
2019-04-22T01:32:26.127Z,28.60
2019-04-22T01:35:03.512Z,27.98
2019-04-22T01:40:16.637Z,27.05
2019-04-22T01:42:56.232Z,29.33
2019-04-22T01:45:22.813Z,28.50
2019-04-22T01:47:49.153Z,29.03
2019-04-22T01:50:23.902Z,28.77
2019-04-22T01:53:00.147Z,30.33
2019-04-22T01:55:34.763Z,29.57
2019-04-22T01:57:53.566Z,29.47
2019-04-22T02:00:15.252Z,30.80
2019-04-22T02:02:59.112Z,31.17
2019-04-22T02:05:31.561Z,29.47
2019-04-22T02:08:06.815Z,31.17
2019-04-22T02:10:39.224Z,28.98
2019-04-22T02:13:11.543Z,30.25
2019-04-22T02:15:46.517Z,28.45
2019-04-22T02:18:18.394Z,30.13
2019-04-22T02:20:40.233Z,30.10
2019-04-22T02:23:42.877Z,30.80
2019-04-22T02:25:59.326Z,31.73
2019-04-22T02:28:32.307Z,29.90
2019-04-22T02:33:57.939Z,31.10
2019-04-22T02:46:22.946Z,31.17
2019-04-22T02:48:53.961Z,30.48
2019-04-22T02:51:21.915Z,32.10
2019-04-22T02:56:23.007Z,30.97
2019-04-22T02:58:55.052Z,31.60
2019-04-22T03:01:24.920Z,31.73
2019-04-22T03:06:26.029Z,31.75
2019-04-22T03:08:59.629Z,31.77
2019-04-22T03:11:24.731Z,32.50
2019-04-22T03:13:57.817Z,34.88
2019-04-22T03:16:26.561Z,32.87
2019-04-22T03:21:23.931Z,35.75
2019-04-22T03:37:14.961Z,31.90
2019-04-22T03:39:31.123Z,33.50
2019-04-22T03:44:18.916Z,34.17
2019-04-22T03:47:02.422Z,34.07
2019-04-22T03:49:28.241Z,33.90
2019-04-22T03:51:56.725Z,36.20
2019-04-22T03:54:19.253Z,37.30
2019-04-22T03:57:22.065Z,35.17
2019-04-22T03:59:33.466Z,36.23
2019-04-22T04:04:35.461Z,35.67
2019-04-22T04:07:01.943Z,36.70
2019-04-22T04:11:59.346Z,38.57
2019-04-22T04:14:32.205Z,38.47
2019-04-22T04:16:56.239Z,36.63
2019-04-22T04:24:46.309Z,39.42
2019-04-22T04:29:45.701Z,40.03
2019-04-22T04:32:07.250Z,38.17
2019-04-22T04:37:07.404Z,41.13
2019-04-22T04:39:40.562Z,39.63
2019-04-22T04:42:18.788Z,40.25
2019-04-22T04:45:00.345Z,39.53
2019-04-22T04:47:21.303Z,41.37
2019-04-22T04:49:45.634Z,41.42
2019-04-22T04:52:17.066Z,42.27
2019-04-22T04:54:49.631Z,40.57
2019-04-22T04:57:17.418Z,42.43
2019-04-22T05:00:11.334Z,43.42
2019-04-22T05:02:20.176Z,40.33
2019-04-22T05:05:00.286Z,42.83
2019-04-22T05:09:44.718Z,42.93
2019-04-22T05:14:46.814Z,43.93
2019-04-22T05:19:47.778Z,47.23
2019-04-22T05:22:21.410Z,46.18
2019-04-22T05:24:51.820Z,46.57
2019-04-22T05:27:32.647Z,44.47
2019-04-22T05:30:10.064Z,45.23
2019-04-22T05:32:27.418Z,46.33
2019-04-22T05:37:27.654Z,46.42
2019-04-22T05:40:06.589Z,49.73
2019-04-22T05:42:26.396Z,49.47
2019-04-22T05:44:55.442Z,50.87
2019-04-22T05:47:32.488Z,51.85
2019-04-22T05:50:03.582Z,50.77
2019-04-22T05:52:35.966Z,50.75
2019-04-22T05:55:09.691Z,51.43
2019-04-22T05:57:31.611Z,51.05
2019-04-22T06:00:14.588Z,51.50
2019-04-22T06:02:47.624Z,53.73
2019-04-22T06:05:14.880Z,51.23
2019-04-22T06:07:38.691Z,51.48
2019-04-22T06:10:19.796Z,48.58
2019-04-22T06:15:16.581Z,46.77
2019-04-22T06:17:56.090Z,46.70
2019-04-22T06:20:19.846Z,43.87
2019-04-22T06:25:27.649Z,41.73
2019-04-22T06:27:54.397Z,39.93
2019-04-22T06:30:28.714Z,38.27
2019-04-22T06:33:02.465Z,39.17
2019-04-22T06:38:21.879Z,36.67
2019-04-22T06:40:31.804Z,40.03
2019-04-22T06:43:03.191Z,38.05
2019-04-22T06:45:33.735Z,34.80
2019-04-22T06:48:13.584Z,31.87
2019-04-22T06:50:41.649Z,31.47
2019-04-22T06:55:41.447Z,32.48
2019-04-22T06:58:10.672Z,30.82
2019-04-22T07:00:42.834Z,30.67
2019-04-22T07:03:34.835Z,31.77
2019-04-22T07:05:46.413Z,30.87
2019-04-22T07:08:45.720Z,29.93
2019-04-22T07:10:47.658Z,31.27
2019-04-22T07:13:23.226Z,31.70
2019-04-22T07:20:59.915Z,31.40
2019-04-22T07:26:08.727Z,29.13
2019-04-22T07:31:01.991Z,26.90
2019-04-22T07:33:32.764Z,27.10
2019-04-22T07:36:23.430Z,27.20
2019-04-22T07:43:55.694Z,24.40
2019-04-22T07:46:07.157Z,23.10
2019-04-22T07:48:43.325Z,21.82
2019-04-22T07:51:07.692Z,21.25
2019-04-22T07:53:33.430Z,20.17
2019-04-22T07:56:11.853Z,18.65
2019-04-22T07:58:42.080Z,18.35
2019-04-22T08:01:14.125Z,19.42
2019-04-22T08:03:51.679Z,19.62
2019-04-22T08:06:29.637Z,18.23
2019-04-22T08:08:46.417Z,18.02
2019-04-22T08:13:46.898Z,19.50
2019-04-22T08:16:17.186Z,19.10
2019-04-22T08:18:45.637Z,15.75
2019-04-22T08:21:16.330Z,15.37
2019-04-22T08:26:27.326Z,16.67
2019-04-22T08:29:03.365Z,13.95
2019-04-22T08:31:32.028Z,14.03
2019-04-22T08:34:01.610Z,13.80
2019-04-22T08:39:01.992Z,13.20
2019-04-22T08:44:00.970Z,12.23
2019-04-22T08:49:05.432Z,12.17
2019-04-22T08:51:29.553Z,12.65
2019-04-22T08:54:07.877Z,12.40
2019-04-22T08:56:43.985Z,11.80
2019-04-22T09:01:40.796Z,11.17
2019-04-22T09:04:10.412Z,11.05
2019-04-22T09:07:02.546Z,11.13
2019-04-22T09:09:17.646Z,10.70
2019-04-22T09:11:47.077Z,11.12
2019-04-22T09:14:16.569Z,10.20
2019-04-22T09:17:06.656Z,10.47
2019-04-22T09:19:17.840Z,9.23
2019-04-22T09:21:56.377Z,9.53
2019-04-22T09:24:23.447Z,8.90
2019-04-22T09:27:10.161Z,8.08
2019-04-22T09:29:32.472Z,8.85
2019-04-22T09:32:00.306Z,8.90
2019-04-22T09:34:28.259Z,8.40
2019-04-22T09:37:07.981Z,8.10
2019-04-22T09:39:29.650Z,7.95
2019-04-22T09:42:05.089Z,7.05
2019-04-22T09:44:36.301Z,7.12
2019-04-22T09:47:07.352Z,7.80
2019-04-22T09:49:44.705Z,7.92
2019-04-22T09:52:10.167Z,6.80
2019-04-22T09:54:51.056Z,7.20
2019-04-22T09:57:15.514Z,7.67
2019-04-22T09:59:51.194Z,7.73
2019-04-22T10:02:25.031Z,8.25
2019-04-22T10:04:47.967Z,9.23
2019-04-22T10:07:23.863Z,7.80
2019-04-22T10:09:59.749Z,8.10
2019-04-22T10:12:30.492Z,4.63
2019-04-22T10:17:25.182Z,5.55
2019-04-22T10:19:53.735Z,6.65
2019-04-22T10:24:56.918Z,6.10
2019-04-22T10:27:29.218Z,6.47
2019-04-22T10:30:00.189Z,5.97
2019-04-22T10:32:33.487Z,5.97
2019-04-22T10:35:02.679Z,6.67
2019-04-22T10:37:28.162Z,5.90
2019-04-22T10:40:02.077Z,6.72
2019-04-22T10:42:31.290Z,6.60
2019-04-22T10:45:01.089Z,6.90
2019-04-22T10:47:31.960Z,6.43
2019-04-22T10:50:04.610Z,6.53
2019-04-22T10:52:37.179Z,5.85
2019-04-22T10:55:11.670Z,5.58
2019-04-22T10:57:42.201Z,5.50
2019-04-22T11:00:13.627Z,5.87
2019-04-22T11:02:43.786Z,6.12
2019-04-22T11:05:14.487Z,6.45
2019-04-22T11:07:51.682Z,6.72
2019-04-22T11:10:27.361Z,6.10
2019-04-22T11:12:47.157Z,6.12
2019-04-22T11:15:18.180Z,6.57
2019-04-22T11:17:49.496Z,6.70
2019-04-22T11:20:19.942Z,6.87
2019-04-22T11:22:51.119Z,6.35
2019-04-22T11:25:21.633Z,5.73
2019-04-22T11:27:51.444Z,5.57
2019-04-22T11:30:24.300Z,5.85
2019-04-22T11:32:54.171Z,6.12
2019-04-22T11:35:23.899Z,6.35
2019-04-22T11:37:54.782Z,6.15
2019-04-22T11:40:32.634Z,5.90
2019-04-22T11:42:59.660Z,5.75
2019-04-22T11:45:29.131Z,5.75
2019-04-22T11:47:59.518Z,6.50
2019-04-22T11:50:30.164Z,7.05
2019-04-22T11:53:00.764Z,6.03
2019-04-22T11:58:01.046Z,7.72
2019-04-22T12:03:07.104Z,6.78
2019-04-22T12:05:37.860Z,6.58
2019-04-22T12:08:09.258Z,6.15
2019-04-22T12:10:48.586Z,6.67
2019-04-22T12:13:12.726Z,7.12
2019-04-22T12:15:42.792Z,6.35
2019-04-22T12:18:13.116Z,7.63
2019-04-22T12:20:43.359Z,7.10
2019-04-22T12:23:14.841Z,6.85
2019-04-22T12:25:53.580Z,6.33
2019-04-22T12:28:17.101Z,5.58
2019-04-22T12:30:48.200Z,6.87
2019-04-22T12:35:46.542Z,6.00
2019-04-22T12:38:17.041Z,6.10
2019-04-22T12:40:56.482Z,7.45
2019-04-22T12:43:23.805Z,7.03
2019-04-22T12:45:52.201Z,6.85
2019-04-22T12:48:23.246Z,5.65
2019-04-22T12:50:55.974Z,5.77
2019-04-22T12:53:27.564Z,5.25
2019-04-22T12:55:55.871Z,5.17
2019-04-22T13:00:55.303Z,7.87
2019-04-22T13:03:26.100Z,5.72
2019-04-22T13:06:01.573Z,5.92
2019-04-22T13:08:31.717Z,5.55
2019-04-22T13:11:08.658Z,6.27
2019-04-22T13:13:34.393Z,6.35
2019-04-22T13:16:04.731Z,5.85
2019-04-22T13:18:42.045Z,6.05
2019-04-22T13:21:07.022Z,5.85
2019-04-22T13:23:41.304Z,5.62
2019-04-22T13:26:12.655Z,5.80
2019-04-22T13:28:43.128Z,6.72
2019-04-22T13:31:16.076Z,5.75
2019-04-22T13:33:46.714Z,6.15
2019-04-22T13:36:20.664Z,6.28
2019-04-22T13:38:49.202Z,5.22
2019-04-22T13:41:28.910Z,5.37
2019-04-22T13:46:21.863Z,5.90
2019-04-22T13:49:14.559Z,5.50
2019-04-22T13:51:52.481Z,5.90
2019-04-22T13:56:49.152Z,5.40
2019-04-22T13:59:09.129Z,4.92
2019-04-22T14:04:07.109Z,5.25
2019-04-22T14:06:36.768Z,5.83
2019-04-22T14:09:09.579Z,5.23
2019-04-22T14:11:49.316Z,5.22
2019-04-22T14:14:12.610Z,5.67
2019-04-22T14:16:46.904Z,5.37
2019-04-22T14:19:18.540Z,5.17
2019-04-22T14:21:49.730Z,5.60
2019-04-22T14:24:19.825Z,5.10
2019-04-22T14:27:03.582Z,5.20
2019-04-22T14:29:22.076Z,5.40
2019-04-22T14:32:03.837Z,4.87
2019-04-22T14:34:24.264Z,5.30
2019-04-22T14:36:55.254Z,4.92
2019-04-22T14:39:26.139Z,5.00
2019-04-22T14:47:20.050Z,5.03
2019-04-22T14:49:52.853Z,4.97
2019-04-22T14:52:22.774Z,5.05
2019-04-22T14:54:45.914Z,4.72
2019-04-22T14:57:03.338Z,4.78
2019-04-22T14:59:32.951Z,5.07
2019-04-22T15:02:03.513Z,5.20
2019-04-22T15:04:33.127Z,4.42
2019-04-22T15:07:03.065Z,4.83
2019-04-22T15:09:32.622Z,5.03
2019-04-22T15:12:11.019Z,4.65
2019-04-22T15:14:33.233Z,4.58
2019-04-22T15:17:11.008Z,4.47
2019-04-22T15:19:45.569Z,4.28
2019-04-22T15:22:15.069Z,4.78
2019-04-22T15:24:45.051Z,4.53
2019-04-22T15:27:16.365Z,4.60
2019-04-22T15:29:47.321Z,4.30
2019-04-22T15:32:17.618Z,5.40
2019-04-22T15:34:49.110Z,4.67
2019-04-22T15:37:20.345Z,5.73
2019-04-22T15:39:49.884Z,4.70
2019-04-22T15:42:25.736Z,4.50
2019-04-22T15:44:51.684Z,4.42
2019-04-22T15:49:50.272Z,4.50
2019-04-22T15:52:30.292Z,5.30
2019-04-22T15:54:53.785Z,98.58
2019-04-22T15:57:22.540Z,45.90
2019-04-22T16:00:06.796Z,6.15
2019-04-22T16:02:25.654Z,5.30
2019-04-22T16:04:55.168Z,4.92
2019-04-22T16:07:25.997Z,5.57
2019-04-22T16:09:55.601Z,5.92
2019-04-22T16:12:30.748Z,9.35
2019-04-22T16:17:26.541Z,9.95
2019-04-22T16:19:57.180Z,8.33
2019-04-22T16:22:28.817Z,8.40
2019-04-22T16:25:02.338Z,26.55
2019-04-22T16:27:32.056Z,36.75
2019-04-22T16:30:01.743Z,22.87
2019-04-22T16:32:31.946Z,33.25
2019-04-22T16:35:02.595Z,43.52
2019-04-22T16:37:32.765Z,42.45
2019-04-22T16:40:03.073Z,8.63
2019-04-22T16:42:41.305Z,4.97
2019-04-22T16:45:04.531Z,5.95
2019-04-22T16:47:35.440Z,6.30
2019-04-22T16:50:08.096Z,5.20
2019-04-22T16:52:37.670Z,11.68
2019-04-22T16:55:08.748Z,14.10
2019-04-22T16:57:39.726Z,26.68
2019-04-22T17:00:11.250Z,8.03
2019-04-22T17:03:00.635Z,8.40
2019-04-22T17:05:37.728Z,58.45
2019-04-22T17:08:08.205Z,93.85
2019-04-22T17:10:37.983Z,23.20
2019-04-22T17:13:11.959Z,19.75
2019-04-22T17:15:39.657Z,17.50
2019-04-22T17:18:09.638Z,8.97
2019-04-22T17:20:40.474Z,25.88
2019-04-22T17:23:11.554Z,35.45
2019-04-22T17:28:10.094Z,21.38
2019-04-22T17:30:39.745Z,14.78
2019-04-22T17:33:10.510Z,9.25
2019-04-22T17:35:41.099Z,9.03
2019-04-22T17:38:20.997Z,6.73
2019-04-22T17:40:56.830Z,5.95
2019-04-22T17:43:52.297Z,6.47
2019-04-22T17:46:24.701Z,5.47
2019-04-22T17:48:57.610Z,6.23
2019-04-22T17:51:39.652Z,8.98
2019-04-22T17:54:02.397Z,5.62
2019-04-22T17:56:32.511Z,6.33
2019-04-22T17:59:02.613Z,6.75
2019-04-22T18:01:35.602Z,7.00
2019-04-22T18:03:51.373Z,8.40
2019-04-22T18:06:44.169Z,5.58
2019-04-22T18:09:08.100Z,6.08
2019-04-22T18:11:56.483Z,5.00
2019-04-22T18:14:37.906Z,5.25
2019-04-22T18:16:41.453Z,6.10
2019-04-22T18:19:15.390Z,9.48
2019-04-22T18:21:41.212Z,7.33
2019-04-22T18:24:08.122Z,6.37
2019-04-22T18:26:49.028Z,5.80
2019-04-22T18:29:17.455Z,4.58
2019-04-22T18:31:43.254Z,5.67
2019-04-22T18:36:53.711Z,6.47
2019-04-22T18:39:31.623Z,4.22
2019-04-22T18:41:57.412Z,5.72
2019-04-22T18:44:37.392Z,5.25
2019-04-22T18:47:03.718Z,6.05
2019-04-22T18:49:39.199Z,5.15
2019-04-22T18:52:25.801Z,4.90
2019-04-22T18:55:02.507Z,8.05
2019-04-22T18:57:32.630Z,5.55
2019-04-22T18:59:53.894Z,5.03
2019-04-22T19:02:21.542Z,4.83
2019-04-22T19:05:01.360Z,6.40
2019-04-22T19:07:44.305Z,7.00
2019-04-22T19:10:27.393Z,5.25
2019-04-22T19:15:18.916Z,6.70
2019-04-22T19:17:54.394Z,6.83
2019-04-22T19:20:23.813Z,4.70
2019-04-22T19:22:55.421Z,4.27
2019-04-22T19:25:15.373Z,4.33
2019-04-22T19:27:48.408Z,4.30
2019-04-22T19:30:21.909Z,4.87
2019-04-22T19:33:02.781Z,4.53
2019-04-22T19:35:22.541Z,4.60
2019-04-22T19:37:53.670Z,4.58
2019-04-22T19:40:57.566Z,4.35
2019-04-22T19:43:22.972Z,4.80
2019-04-22T19:45:50.619Z,5.20
2019-04-22T19:48:27.092Z,5.17
2019-04-22T19:53:32.101Z,4.25
2019-04-22T19:55:58.594Z,4.30
2019-04-22T19:58:26.170Z,4.30
2019-04-22T20:01:13.473Z,3.55
2019-04-22T20:06:35.044Z,3.52
2019-04-22T20:09:13.580Z,3.98
2019-04-22T20:11:43.793Z,4.08
2019-04-22T20:14:16.893Z,3.72
2019-04-22T20:16:46.269Z,5.80
2019-04-22T20:21:51.255Z,5.47
2019-04-22T20:24:12.863Z,4.95
2019-04-22T20:29:31.112Z,4.83
2019-04-22T20:31:59.106Z,5.37
2019-04-22T20:34:35.512Z,5.83
2019-04-22T20:39:38.072Z,5.00
2019-04-22T20:42:16.555Z,4.37
2019-04-22T20:44:39.738Z,4.77
2019-04-22T20:47:07.732Z,5.75
2019-04-22T20:52:13.651Z,4.70
2019-04-22T20:54:40.588Z,5.10
2019-04-22T20:57:09.452Z,5.03
2019-04-22T20:59:37.175Z,5.20
2019-04-22T21:02:07.251Z,5.07
2019-04-22T21:04:38.290Z,5.07
2019-04-22T21:07:13.851Z,5.37
2019-04-22T21:09:43.210Z,4.90
2019-04-22T21:12:14.906Z,5.07
2019-04-22T21:14:57.296Z,6.60
2019-04-22T21:17:17.994Z,8.30
2019-04-22T21:20:15.524Z,5.07
2019-04-22T21:22:26.666Z,4.92
2019-04-22T21:24:53.593Z,4.87
2019-04-22T21:27:28.800Z,5.25
2019-04-22T21:29:53.275Z,5.23
2019-04-22T21:32:31.287Z,5.27
2019-04-22T21:35:09.955Z,4.78
2019-04-22T21:37:37.769Z,4.87
2019-04-22T21:39:59.072Z,5.70
2019-04-22T21:42:41.022Z,4.77
2019-04-22T21:45:03.322Z,4.53
2019-04-22T21:47:47.731Z,4.27
2019-04-22T21:50:28.162Z,4.67
2019-04-22T21:52:40.693Z,4.30
2019-04-22T21:55:14.475Z,4.33
2019-04-22T21:57:55.540Z,3.97
2019-04-22T22:00:32.774Z,4.55
2019-04-22T22:03:00.643Z,4.33
2019-04-22T22:05:20.083Z,4.15
2019-04-22T22:07:51.087Z,3.47
2019-04-22T22:10:33.880Z,4.87
2019-04-22T22:13:06.623Z,4.72
2019-04-22T22:18:06.843Z,4.10
2019-04-22T22:20:45.336Z,3.60
2019-04-22T22:23:16.084Z,3.70
2019-04-22T22:25:34.972Z,4.00
2019-04-22T22:28:29.436Z,3.60
2019-04-22T22:30:47.659Z,3.60
2019-04-22T22:33:10.954Z,3.87
2019-04-22T22:35:40.830Z,3.90
2019-04-22T22:38:11.977Z,3.83
2019-04-22T22:40:28.569Z,4.70
2019-04-22T22:42:58.994Z,3.87
2019-04-22T22:45:37.193Z,3.87
2019-04-22T22:48:26.684Z,3.57
2019-04-22T22:50:50.829Z,3.23
2019-04-22T22:53:31.019Z,3.65
2019-04-22T22:55:54.782Z,3.80
2019-04-22T22:58:27.762Z,3.77
2019-04-22T23:00:53.588Z,3.43
2019-04-22T23:03:46.017Z,3.93
2019-04-22T23:06:03.192Z,3.67
2019-04-22T23:08:34.369Z,2.93
2019-04-22T23:11:22.288Z,3.27
2019-04-22T23:13:38.939Z,3.90
2019-04-22T23:16:00.929Z,3.90
2019-04-22T23:18:16.219Z,4.00
2019-04-22T23:20:49.603Z,3.52
2019-04-22T23:23:38.176Z,3.40
2019-04-22T23:26:07.334Z,4.00
2019-04-22T23:28:29.832Z,3.70
2019-04-22T23:31:05.507Z,3.90
2019-04-22T23:33:57.251Z,3.35
2019-04-22T23:36:27.905Z,3.70
2019-04-22T23:39:13.939Z,3.62
2019-04-22T23:41:48.565Z,3.90
2019-04-22T23:44:13.853Z,3.17
2019-04-22T23:46:41.521Z,3.97
2019-04-22T23:49:16.254Z,3.60
2019-04-22T23:51:55.346Z,3.12
2019-04-22T23:54:20.416Z,3.50
2019-04-22T23:56:43.231Z,3.60
